sensor_id;sensor_type;location;lat;lon;timestamp;temperature;humidity
5419;DHT22;2732;52.092;11.556;2023-10-19T00:03:31;7.20;99.90
5419;DHT22;2732;52.092;11.556;2023-10-19T00:08:32;7.20;99.90
5419;DHT22;2732;52.092;11.556;2023-10-19T00:13:41;7.30;99.90
5419;DHT22;2732;52.092;11.556;2023-10-19T00:18:45;7.30;99.90
5419;DHT22;2732;52.092;11.556;2023-10-19T00:23:52;7.30;99.90
5419;DHT22;2732;52.092;11.556;2023-10-19T00:28:57;7.30;99.90
5419;DHT22;2732;52.092;11.556;2023-10-19T00:33:58;7.30;99.90
5419;DHT22;2732;52.092;11.556;2023-10-19T00:38:58;7.40;99.90
5419;DHT22;2732;52.092;11.556;2023-10-19T00:44:01;7.40;99.90
5419;DHT22;2732;52.092;11.556;2023-10-19T00:49:12;7.40;99.90
5419;DHT22;2732;52.092;11.556;2023-10-19T00:54:27;7.50;99.90
5419;DHT22;2732;52.092;11.556;2023-10-19T00:59:39;7.50;99.90
5419;DHT22;2732;52.092;11.556;2023-10-19T01:04:52;7.50;99.90
5419;DHT22;2732;52.092;11.556;2023-10-19T01:10:01;7.50;99.90
5419;DHT22;2732;52.092;11.556;2023-10-19T01:15:28;7.50;99.90
5419;DHT22;2732;52.092;11.556;2023-10-19T01:20:31;7.60;99.90
5419;DHT22;2732;52.092;11.556;2023-10-19T01:25:53;7.60;99.90
5419;DHT22;2732;52.092;11.556;2023-10-19T01:37:13;7.60;99.90
5419;DHT22;2732;52.092;11.556;2023-10-19T01:42:14;7.60;99.90
5419;DHT22;2732;52.092;11.556;2023-10-19T01:47:15;7.70;99.90
5419;DHT22;2732;52.092;11.556;2023-10-19T01:52:16;7.70;99.90
5419;DHT22;2732;52.092;11.556;2023-10-19T01:57:17;7.70;99.90
5419;DHT22;2732;52.092;11.556;2023-10-19T02:02:17;7.70;99.90
5419;DHT22;2732;52.092;11.556;2023-10-19T02:07:18;7.70;99.90
5419;DHT22;2732;52.092;11.556;2023-10-19T02:12:19;7.70;99.90
5419;DHT22;2732;52.092;11.556;2023-10-19T02:17:20;7.70;99.90
5419;DHT22;2732;52.092;11.556;2023-10-19T02:22:21;7.70;99.90
5419;DHT22;2732;52.092;11.556;2023-10-19T02:27:21;7.70;99.90
5419;DHT22;2732;52.092;11.556;2023-10-19T02:32:22;7.70;99.90
5419;DHT22;2732;52.092;11.556;2023-10-19T02:37:24;7.70;99.90
5419;DHT22;2732;52.092;11.556;2023-10-19T02:42:25;7.70;99.90
5419;DHT22;2732;52.092;11.556;2023-10-19T02:47:26;7.70;99.90
5419;DHT22;2732;52.092;11.556;2023-10-19T02:52:30;7.70;99.90
5419;DHT22;2732;52.092;11.556;2023-10-19T02:57:30;7.70;99.90
5419;DHT22;2732;52.092;11.556;2023-10-19T03:02:31;7.70;99.90
5419;DHT22;2732;52.092;11.556;2023-10-19T03:07:32;7.70;99.90
5419;DHT22;2732;52.092;11.556;2023-10-19T03:12:32;7.70;99.90
5419;DHT22;2732;52.092;11.556;2023-10-19T03:17:33;7.70;99.90
5419;DHT22;2732;52.092;11.556;2023-10-19T03:22:34;7.70;99.90
5419;DHT22;2732;52.092;11.556;2023-10-19T03:27:35;7.70;99.90
5419;DHT22;2732;52.092;11.556;2023-10-19T03:32:36;7.70;99.90
5419;DHT22;2732;52.092;11.556;2023-10-19T03:37:37;7.70;99.90
5419;DHT22;2732;52.092;11.556;2023-10-19T03:42:38;7.70;99.90
5419;DHT22;2732;52.092;11.556;2023-10-19T03:47:41;7.70;99.90
5419;DHT22;2732;52.092;11.556;2023-10-19T03:52:44;7.70;99.90
5419;DHT22;2732;52.092;11.556;2023-10-19T03:57:45;7.70;99.90
5419;DHT22;2732;52.092;11.556;2023-10-19T04:02:55;7.60;99.90
5419;DHT22;2732;52.092;11.556;2023-10-19T04:07:58;7.60;99.90
5419;DHT22;2732;52.092;11.556;2023-10-19T04:12:59;7.70;99.90
5419;DHT22;2732;52.092;11.556;2023-10-19T04:18:02;7.70;99.90
5419;DHT22;2732;52.092;11.556;2023-10-19T04:23:09;7.70;99.90
5419;DHT22;2732;52.092;11.556;2023-10-19T04:28:15;7.70;99.90
5419;DHT22;2732;52.092;11.556;2023-10-19T04:33:16;7.70;99.90
5419;DHT22;2732;52.092;11.556;2023-10-19T04:38:19;7.70;99.90
5419;DHT22;2732;52.092;11.556;2023-10-19T04:43:20;7.70;99.90
5419;DHT22;2732;52.092;11.556;2023-10-19T04:48:22;7.70;99.90
5419;DHT22;2732;52.092;11.556;2023-10-19T04:53:23;7.70;99.90
5419;DHT22;2732;52.092;11.556;2023-10-19T04:58:29;7.70;99.90
5419;DHT22;2732;52.092;11.556;2023-10-19T05:03:30;7.70;99.90
5419;DHT22;2732;52.092;11.556;2023-10-19T05:08:31;7.70;99.90
5419;DHT22;2732;52.092;11.556;2023-10-19T05:13:33;7.70;99.90
5419;DHT22;2732;52.092;11.556;2023-10-19T05:18:34;7.60;99.90
5419;DHT22;2732;52.092;11.556;2023-10-19T05:23:34;7.70;99.90
5419;DHT22;2732;52.092;11.556;2023-10-19T05:28:35;7.70;99.90
5419;DHT22;2732;52.092;11.556;2023-10-19T05:33:35;7.70;99.90
5419;DHT22;2732;52.092;11.556;2023-10-19T05:38:36;7.70;99.90
5419;DHT22;2732;52.092;11.556;2023-10-19T05:43:38;7.60;99.90
5419;DHT22;2732;52.092;11.556;2023-10-19T05:48:39;7.60;99.90
5419;DHT22;2732;52.092;11.556;2023-10-19T05:53:39;7.60;99.90
5419;DHT22;2732;52.092;11.556;2023-10-19T05:58:41;7.60;99.90
5419;DHT22;2732;52.092;11.556;2023-10-19T06:03:42;7.60;99.90
5419;DHT22;2732;52.092;11.556;2023-10-19T06:08:43;7.60;99.90
5419;DHT22;2732;52.092;11.556;2023-10-19T06:13:43;7.60;99.90
5419;DHT22;2732;52.092;11.556;2023-10-19T06:18:44;7.60;99.90
5419;DHT22;2732;52.092;11.556;2023-10-19T06:23:45;7.60;99.90
5419;DHT22;2732;52.092;11.556;2023-10-19T06:28:46;7.60;99.90
5419;DHT22;2732;52.092;11.556;2023-10-19T06:33:46;7.60;99.90
5419;DHT22;2732;52.092;11.556;2023-10-19T06:38:47;7.70;99.90
5419;DHT22;2732;52.092;11.556;2023-10-19T06:43:51;7.70;99.90
5419;DHT22;2732;52.092;11.556;2023-10-19T06:48:51;7.70;99.90
5419;DHT22;2732;52.092;11.556;2023-10-19T06:53:56;7.70;99.90
5419;DHT22;2732;52.092;11.556;2023-10-19T06:58:56;7.70;99.90
5419;DHT22;2732;52.092;11.556;2023-10-19T07:03:57;7.70;99.90
5419;DHT22;2732;52.092;11.556;2023-10-19T07:08:58;7.70;99.90
5419;DHT22;2732;52.092;11.556;2023-10-19T07:13:59;7.70;99.90
5419;DHT22;2732;52.092;11.556;2023-10-19T07:19:01;7.70;99.90
5419;DHT22;2732;52.092;11.556;2023-10-19T07:24:01;7.80;99.90
5419;DHT22;2732;52.092;11.556;2023-10-19T07:29:05;7.80;99.90
5419;DHT22;2732;52.092;11.556;2023-10-19T07:34:10;7.80;99.90
5419;DHT22;2732;52.092;11.556;2023-10-19T07:39:15;7.90;99.90
5419;DHT22;2732;52.092;11.556;2023-10-19T07:44:19;7.90;99.90
5419;DHT22;2732;52.092;11.556;2023-10-19T07:49:20;8.00;99.90
5419;DHT22;2732;52.092;11.556;2023-10-19T07:54:22;8.00;99.90
5419;DHT22;2732;52.092;11.556;2023-10-19T07:59:23;8.10;99.90
5419;DHT22;2732;52.092;11.556;2023-10-19T08:04:24;8.10;99.90
5419;DHT22;2732;52.092;11.556;2023-10-19T08:09:26;8.20;99.90
5419;DHT22;2732;52.092;11.556;2023-10-19T08:14:32;8.20;99.90
5419;DHT22;2732;52.092;11.556;2023-10-19T08:19:32;8.30;99.90
5419;DHT22;2732;52.092;11.556;2023-10-19T08:24:33;8.20;99.90
5419;DHT22;2732;52.092;11.556;2023-10-19T08:29:35;8.30;99.90
5419;DHT22;2732;52.092;11.556;2023-10-19T08:34:36;8.30;99.90
5419;DHT22;2732;52.092;11.556;2023-10-19T08:39:37;8.30;99.90
5419;DHT22;2732;52.092;11.556;2023-10-19T08:44:37;8.40;99.90
5419;DHT22;2732;52.092;11.556;2023-10-19T08:49:39;8.40;99.90
5419;DHT22;2732;52.092;11.556;2023-10-19T08:54:39;8.50;99.90
5419;DHT22;2732;52.092;11.556;2023-10-19T08:59:40;8.60;99.90
5419;DHT22;2732;52.092;11.556;2023-10-19T09:04:42;8.80;99.90
5419;DHT22;2732;52.092;11.556;2023-10-19T09:09:45;8.90;99.90
5419;DHT22;2732;52.092;11.556;2023-10-19T09:14:49;9.00;99.90
5419;DHT22;2732;52.092;11.556;2023-10-19T09:19:50;9.00;99.90
5419;DHT22;2732;52.092;11.556;2023-10-19T09:24:52;9.00;99.90
5419;DHT22;2732;52.092;11.556;2023-10-19T09:29:56;9.00;99.90
5419;DHT22;2732;52.092;11.556;2023-10-19T09:34:57;9.00;99.90
5419;DHT22;2732;52.092;11.556;2023-10-19T09:39:58;9.00;99.90
5419;DHT22;2732;52.092;11.556;2023-10-19T09:45:00;9.00;99.90
5419;DHT22;2732;52.092;11.556;2023-10-19T09:50:06;9.00;99.90
5419;DHT22;2732;52.092;11.556;2023-10-19T09:55:28;9.10;99.90
5419;DHT22;2732;52.092;11.556;2023-10-19T10:00:32;9.10;99.90
5419;DHT22;2732;52.092;11.556;2023-10-19T10:10:38;9.20;99.90
5419;DHT22;2732;52.092;11.556;2023-10-19T10:15:42;9.20;99.90
5419;DHT22;2732;52.092;11.556;2023-10-19T10:20:43;9.20;99.90
5419;DHT22;2732;52.092;11.556;2023-10-19T10:25:46;9.30;99.90
5419;DHT22;2732;52.092;11.556;2023-10-19T10:31:08;9.30;99.90
5419;DHT22;2732;52.092;11.556;2023-10-19T10:36:10;9.40;99.90
5419;DHT22;2732;52.092;11.556;2023-10-19T10:41:12;9.50;99.90
5419;DHT22;2732;52.092;11.556;2023-10-19T10:46:13;9.50;99.90
5419;DHT22;2732;52.092;11.556;2023-10-19T10:51:22;9.60;99.90
5419;DHT22;2732;52.092;11.556;2023-10-19T10:56:25;9.70;99.90
5419;DHT22;2732;52.092;11.556;2023-10-19T11:01:30;9.90;99.90
5419;DHT22;2732;52.092;11.556;2023-10-19T11:06:33;10.00;99.90
5419;DHT22;2732;52.092;11.556;2023-10-19T11:11:37;10.10;99.90
5419;DHT22;2732;52.092;11.556;2023-10-19T11:16:39;10.20;99.90
5419;DHT22;2732;52.092;11.556;2023-10-19T11:21:52;10.10;99.90
5419;DHT22;2732;52.092;11.556;2023-10-19T11:26:54;10.10;99.90
5419;DHT22;2732;52.092;11.556;2023-10-19T11:31:59;10.10;99.90
5419;DHT22;2732;52.092;11.556;2023-10-19T11:37:00;10.00;99.90
5419;DHT22;2732;52.092;11.556;2023-10-19T11:42:10;10.00;99.90
5419;DHT22;2732;52.092;11.556;2023-10-19T11:47:10;10.00;99.90
5419;DHT22;2732;52.092;11.556;2023-10-19T11:52:11;10.00;99.90
5419;DHT22;2732;52.092;11.556;2023-10-19T11:57:13;10.10;99.90
5419;DHT22;2732;52.092;11.556;2023-10-19T12:02:14;10.00;99.90
5419;DHT22;2732;52.092;11.556;2023-10-19T12:07:19;10.00;99.90
5419;DHT22;2732;52.092;11.556;2023-10-19T12:12:21;10.10;99.90
5419;DHT22;2732;52.092;11.556;2023-10-19T12:17:21;10.10;99.90
5419;DHT22;2732;52.092;11.556;2023-10-19T12:22:23;10.10;99.90
5419;DHT22;2732;52.092;11.556;2023-10-19T12:27:24;10.10;99.90
5419;DHT22;2732;52.092;11.556;2023-10-19T12:32:25;10.00;99.90
5419;DHT22;2732;52.092;11.556;2023-10-19T12:37:26;10.00;99.90
5419;DHT22;2732;52.092;11.556;2023-10-19T12:42:28;10.00;99.90
5419;DHT22;2732;52.092;11.556;2023-10-19T12:47:28;10.00;99.90
5419;DHT22;2732;52.092;11.556;2023-10-19T12:52:30;10.00;99.90
5419;DHT22;2732;52.092;11.556;2023-10-19T12:57:36;10.10;99.90
5419;DHT22;2732;52.092;11.556;2023-10-19T13:02:36;10.10;99.90
5419;DHT22;2732;52.092;11.556;2023-10-19T13:07:39;10.10;99.90
5419;DHT22;2732;52.092;11.556;2023-10-19T13:12:39;10.10;99.90
5419;DHT22;2732;52.092;11.556;2023-10-19T13:17:40;10.10;99.90
5419;DHT22;2732;52.092;11.556;2023-10-19T13:22:43;10.00;99.90
5419;DHT22;2732;52.092;11.556;2023-10-19T13:27:45;10.10;99.90
5419;DHT22;2732;52.092;11.556;2023-10-19T13:32:45;10.10;99.90
5419;DHT22;2732;52.092;11.556;2023-10-19T13:37:47;10.10;99.90
5419;DHT22;2732;52.092;11.556;2023-10-19T13:42:47;10.00;99.90
5419;DHT22;2732;52.092;11.556;2023-10-19T13:47:49;10.00;99.90
5419;DHT22;2732;52.092;11.556;2023-10-19T13:52:56;10.00;99.90
5419;DHT22;2732;52.092;11.556;2023-10-19T13:57:57;10.00;99.90
5419;DHT22;2732;52.092;11.556;2023-10-19T14:02:58;10.00;99.90
5419;DHT22;2732;52.092;11.556;2023-10-19T14:08:00;10.00;99.90
5419;DHT22;2732;52.092;11.556;2023-10-19T14:13:01;10.00;99.90
5419;DHT22;2732;52.092;11.556;2023-10-19T14:18:03;10.00;99.90
5419;DHT22;2732;52.092;11.556;2023-10-19T14:23:04;9.90;99.90
5419;DHT22;2732;52.092;11.556;2023-10-19T14:28:05;9.90;99.90
5419;DHT22;2732;52.092;11.556;2023-10-19T14:33:10;9.90;99.90
5419;DHT22;2732;52.092;11.556;2023-10-19T14:38:11;9.90;99.90
5419;DHT22;2732;52.092;11.556;2023-10-19T14:43:14;9.90;99.90
5419;DHT22;2732;52.092;11.556;2023-10-19T14:48:14;9.80;99.90
5419;DHT22;2732;52.092;11.556;2023-10-19T14:53:16;9.80;99.90
5419;DHT22;2732;52.092;11.556;2023-10-19T14:58:18;9.80;99.90
5419;DHT22;2732;52.092;11.556;2023-10-19T15:03:18;9.70;99.90
5419;DHT22;2732;52.092;11.556;2023-10-19T15:08:19;9.70;99.90
5419;DHT22;2732;52.092;11.556;2023-10-19T15:13:24;9.60;99.90
5419;DHT22;2732;52.092;11.556;2023-10-19T15:18:26;9.60;99.90
5419;DHT22;2732;52.092;11.556;2023-10-19T15:23:28;9.60;99.90
5419;DHT22;2732;52.092;11.556;2023-10-19T15:28:30;9.50;99.90
5419;DHT22;2732;52.092;11.556;2023-10-19T15:33:33;9.50;99.90
5419;DHT22;2732;52.092;11.556;2023-10-19T15:38:34;9.50;99.90
5419;DHT22;2732;52.092;11.556;2023-10-19T15:43:35;9.40;99.90
5419;DHT22;2732;52.092;11.556;2023-10-19T15:48:35;9.40;99.90
5419;DHT22;2732;52.092;11.556;2023-10-19T15:53:37;9.30;99.90
5419;DHT22;2732;52.092;11.556;2023-10-19T15:58:38;9.30;99.90
5419;DHT22;2732;52.092;11.556;2023-10-19T16:03:39;9.20;99.90
5419;DHT22;2732;52.092;11.556;2023-10-19T16:08:45;9.20;99.90
5419;DHT22;2732;52.092;11.556;2023-10-19T16:13:46;9.20;99.90
5419;DHT22;2732;52.092;11.556;2023-10-19T16:18:46;9.10;99.90
5419;DHT22;2732;52.092;11.556;2023-10-19T16:23:47;9.10;99.90
5419;DHT22;2732;52.092;11.556;2023-10-19T16:28:49;9.10;99.90
5419;DHT22;2732;52.092;11.556;2023-10-19T16:33:49;9.00;99.90
5419;DHT22;2732;52.092;11.556;2023-10-19T16:38:52;9.00;99.90
5419;DHT22;2732;52.092;11.556;2023-10-19T16:43:52;9.00;99.90
5419;DHT22;2732;52.092;11.556;2023-10-19T16:48:53;9.00;99.90
5419;DHT22;2732;52.092;11.556;2023-10-19T16:53:55;9.00;99.90
5419;DHT22;2732;52.092;11.556;2023-10-19T16:58:57;9.00;99.90
5419;DHT22;2732;52.092;11.556;2023-10-19T17:03:57;9.00;99.90
5419;DHT22;2732;52.092;11.556;2023-10-19T17:09:14;8.90;99.90
5419;DHT22;2732;52.092;11.556;2023-10-19T17:14:20;8.90;99.90
5419;DHT22;2732;52.092;11.556;2023-10-19T17:19:21;8.90;99.90
5419;DHT22;2732;52.092;11.556;2023-10-19T17:24:23;8.90;99.90
5419;DHT22;2732;52.092;11.556;2023-10-19T17:29:24;8.80;99.90
5419;DHT22;2732;52.092;11.556;2023-10-19T17:34:26;8.80;99.90
5419;DHT22;2732;52.092;11.556;2023-10-19T17:39:27;8.80;99.90
5419;DHT22;2732;52.092;11.556;2023-10-19T17:44:29;8.80;99.90
5419;DHT22;2732;52.092;11.556;2023-10-19T17:49:30;8.80;99.90
5419;DHT22;2732;52.092;11.556;2023-10-19T17:54:36;8.80;99.90
5419;DHT22;2732;52.092;11.556;2023-10-19T17:59:37;8.80;99.90
5419;DHT22;2732;52.092;11.556;2023-10-19T18:04:38;8.80;99.90
5419;DHT22;2732;52.092;11.556;2023-10-19T18:09:39;8.80;99.90
5419;DHT22;2732;52.092;11.556;2023-10-19T18:14:40;8.80;99.90
5419;DHT22;2732;52.092;11.556;2023-10-19T18:19:40;8.80;99.90
5419;DHT22;2732;52.092;11.556;2023-10-19T18:24:43;8.80;99.90
5419;DHT22;2732;52.092;11.556;2023-10-19T18:29:44;8.80;99.90
5419;DHT22;2732;52.092;11.556;2023-10-19T18:34:44;8.80;99.90
5419;DHT22;2732;52.092;11.556;2023-10-19T18:39:45;8.80;99.90
5419;DHT22;2732;52.092;11.556;2023-10-19T18:44:46;8.80;99.90
5419;DHT22;2732;52.092;11.556;2023-10-19T18:49:47;8.80;99.90
5419;DHT22;2732;52.092;11.556;2023-10-19T18:54:48;8.80;99.90
5419;DHT22;2732;52.092;11.556;2023-10-19T18:59:49;8.80;99.90
5419;DHT22;2732;52.092;11.556;2023-10-19T19:04:50;8.80;99.90
5419;DHT22;2732;52.092;11.556;2023-10-19T19:09:50;8.80;99.90
5419;DHT22;2732;52.092;11.556;2023-10-19T19:14:52;8.80;99.90
5419;DHT22;2732;52.092;11.556;2023-10-19T19:19:53;8.80;99.90
5419;DHT22;2732;52.092;11.556;2023-10-19T19:24:55;8.80;99.90
5419;DHT22;2732;52.092;11.556;2023-10-19T19:29:56;8.80;99.90
5419;DHT22;2732;52.092;11.556;2023-10-19T19:34:57;8.80;99.90
5419;DHT22;2732;52.092;11.556;2023-10-19T19:39:58;8.80;99.90
5419;DHT22;2732;52.092;11.556;2023-10-19T19:44:59;8.80;99.90
5419;DHT22;2732;52.092;11.556;2023-10-19T19:50:00;8.80;99.90
5419;DHT22;2732;52.092;11.556;2023-10-19T19:55:00;8.80;99.90
5419;DHT22;2732;52.092;11.556;2023-10-19T20:00:03;8.80;99.90
5419;DHT22;2732;52.092;11.556;2023-10-19T20:05:15;8.80;99.90
5419;DHT22;2732;52.092;11.556;2023-10-19T20:10:17;8.70;99.90
5419;DHT22;2732;52.092;11.556;2023-10-19T20:15:17;8.70;99.90
5419;DHT22;2732;52.092;11.556;2023-10-19T20:20:19;8.70;99.90
5419;DHT22;2732;52.092;11.556;2023-10-19T20:25:24;8.70;99.90
5419;DHT22;2732;52.092;11.556;2023-10-19T20:30:27;8.70;99.90
5419;DHT22;2732;52.092;11.556;2023-10-19T20:35:27;8.70;99.90
5419;DHT22;2732;52.092;11.556;2023-10-19T20:40:32;8.70;99.90
5419;DHT22;2732;52.092;11.556;2023-10-19T20:45:34;8.70;99.90
5419;DHT22;2732;52.092;11.556;2023-10-19T20:50:34;8.70;99.90
5419;DHT22;2732;52.092;11.556;2023-10-19T20:55:35;8.70;99.90
5419;DHT22;2732;52.092;11.556;2023-10-19T21:00:36;8.70;99.90
5419;DHT22;2732;52.092;11.556;2023-10-19T21:05:37;8.70;99.90
5419;DHT22;2732;52.092;11.556;2023-10-19T21:10:39;8.60;99.90
5419;DHT22;2732;52.092;11.556;2023-10-19T21:15:40;8.60;99.90
5419;DHT22;2732;52.092;11.556;2023-10-19T21:20:40;8.60;99.90
5419;DHT22;2732;52.092;11.556;2023-10-19T21:25:41;8.60;99.90
5419;DHT22;2732;52.092;11.556;2023-10-19T21:30:42;8.60;99.90
5419;DHT22;2732;52.092;11.556;2023-10-19T21:35:43;8.60;99.90
5419;DHT22;2732;52.092;11.556;2023-10-19T21:40:44;8.60;99.90
5419;DHT22;2732;52.092;11.556;2023-10-19T21:45:46;8.60;99.90
5419;DHT22;2732;52.092;11.556;2023-10-19T21:50:47;8.60;99.90
5419;DHT22;2732;52.092;11.556;2023-10-19T21:55:52;8.60;99.90
5419;DHT22;2732;52.092;11.556;2023-10-19T22:00:53;8.60;99.90
5419;DHT22;2732;52.092;11.556;2023-10-19T22:06:05;8.60;99.90
5419;DHT22;2732;52.092;11.556;2023-10-19T22:11:06;8.50;99.90
5419;DHT22;2732;52.092;11.556;2023-10-19T22:16:07;8.50;99.90
5419;DHT22;2732;52.092;11.556;2023-10-19T22:21:08;8.50;99.90
5419;DHT22;2732;52.092;11.556;2023-10-19T22:26:08;8.50;99.90
5419;DHT22;2732;52.092;11.556;2023-10-19T22:31:11;8.50;99.90
5419;DHT22;2732;52.092;11.556;2023-10-19T22:36:13;8.50;99.90
5419;DHT22;2732;52.092;11.556;2023-10-19T22:41:13;8.50;99.90
5419;DHT22;2732;52.092;11.556;2023-10-19T22:46:15;8.50;99.90
5419;DHT22;2732;52.092;11.556;2023-10-19T22:51:16;8.50;99.90
5419;DHT22;2732;52.092;11.556;2023-10-19T22:56:16;8.50;99.90
5419;DHT22;2732;52.092;11.556;2023-10-19T23:01:17;8.50;99.90
5419;DHT22;2732;52.092;11.556;2023-10-19T23:06:19;8.50;99.90
5419;DHT22;2732;52.092;11.556;2023-10-19T23:11:21;8.50;99.90
5419;DHT22;2732;52.092;11.556;2023-10-19T23:16:27;8.50;99.90
5419;DHT22;2732;52.092;11.556;2023-10-19T23:21:32;8.50;99.90
5419;DHT22;2732;52.092;11.556;2023-10-19T23:26:33;8.50;99.90
5419;DHT22;2732;52.092;11.556;2023-10-19T23:31:33;8.50;99.90
5419;DHT22;2732;52.092;11.556;2023-10-19T23:36:38;8.50;99.90
5419;DHT22;2732;52.092;11.556;2023-10-19T23:41:39;8.50;99.90
5419;DHT22;2732;52.092;11.556;2023-10-19T23:46:41;8.50;99.90
5419;DHT22;2732;52.092;11.556;2023-10-19T23:51:42;8.50;99.90
5419;DHT22;2732;52.092;11.556;2023-10-19T23:56:43;8.50;99.90
